Jacobus — OR3790 — position and weather

sailwx.info

Track history (hours):
 
Tides and Currents Weather Stations Pressure Air Temp Water Temp Dewpoint Dewpoint Depression Visibility Wind Speed Wind Dir Waves Ship Positions

Jacobus

Last reported at 2015-Jul-26 14:25 UTC. Time now 2015-Jul-31 09:20 UTC.
Position N 40°45' E 014°20'.

Length 17 m.

Type: Pleasure craft. MMSI: 205379010.

Date/timePositionNaut miles runAvg speedWind from/ knotsBaromVisibWave heightAir tempDewpointWater temp
2015-Jul-26 14:25N 40°45' E 014°20'7 6.0
2015-Jul-26 13:14N 40°38' E 014°20'4 0.1
2015-Jul-25 11:13N 40°34' E 014°19'3 4.8
2015-Jul-25 10:33N 40°34' E 014°15'0 0.0
2015-Jul-24 14:20N 40°34' E 014°15'5 6.3
2015-Jul-24 13:30N 40°38' E 014°19'4 4.0
2015-Jul-24 12:30N 40°40' E 014°23'5 4.9
2015-Jul-24 11:33N 40°43' E 014°18'5 5.5
2015-Jul-24 10:34N 40°48' E 014°15'1 0.8
2015-Jul-24 09:03N 40°49' E 014°15'3 5.4
2015-Jul-24 08:33N 40°48' E 014°12'5 5.1
2015-Jul-24 07:33N 40°45' E 014°06'5 5.4
2015-Jul-24 06:32N 40°44' E 013°60'1 1.3
2015-Jul-24 05:33N 40°44' E 013°58'0 0.0
2015-Jul-24 04:33N 40°44' E 013°58'0 0.0
2015-Jul-24 03:30N 40°44' E 013°58'0 0.0
2015-Jul-24 02:33N 40°44' E 013°58'0 0.0
2015-Jul-24 01:33N 40°44' E 013°58'0 0.0
2015-Jul-24 00:33N 40°44' E 013°58'0 0.0
2015-Jul-23 23:33N 40°44' E 013°58'0 0.0
2015-Jul-23 22:33N 40°44' E 013°58'0 0.0
2015-Jul-23 20:32N 40°44' E 013°58'3 0.6
2015-Jul-23 15:33N 40°44' E 014°02'6 6.2
2015-Jul-23 14:33N 40°46' E 014°09'8 4.1
2015-Jul-23 12:33N 40°49' E 014°20'0 0.0
2015-Jul-23 11:28N 40°49' E 014°20'3 2.8
2015-Jul-23 10:19N 40°46' E 014°20'5 6.5
2015-Jul-23 09:33N 40°41' E 014°19'  
2015-Jul-19 16:26N 40°33' E 014°15'0 0.2
2015-Jul-19 15:32N 40°34' E 014°15'3 2.8
2015-Jul-19 14:33N 40°35' E 014°11'6 6.3
2015-Jul-19 13:33N 40°38' E 014°05'6 5.8
2015-Jul-19 12:33N 40°43' E 013°59'2 1.6
2015-Jul-19 11:33N 40°44' E 013°58'0 0.0
2015-Jul-19 10:33N 40°44' E 013°58'0 0.0
2015-Jul-19 09:34N 40°44' E 013°58'0 0.0
2015-Jul-19 00:31N 40°44' E 013°58'0 0.0
2015-Jul-18 23:33N 40°44' E 013°58'0 0.0
2015-Jul-18 22:33N 40°44' E 013°58'0 0.0
2015-Jul-18 21:26N 40°44' E 013°58'0 0.0
2015-Jul-18 20:31N 40°44' E 013°58'0 0.0
2015-Jul-18 19:33N 40°44' E 013°58'0 0.0
2015-Jul-18 18:33N 40°44' E 013°58'0 0.0
2015-Jul-18 17:33N 40°44' E 013°58'0 0.0
2015-Jul-18 16:33N 40°44' E 013°58'2 2.1
2015-Jul-18 15:33N 40°45' E 014°00'  
Track history (hours):
 
Tides and Currents Weather Stations Pressure Air Temp Water Temp Dewpoint Dewpoint Depression Visibility Wind Speed Wind Dir Waves Ship Positions

Jacobus

Last reported at 2015-Jul-26 14:25 UTC. Time now 2015-Jul-31 09:20 UTC.
Position N 40°45' E 014°20'.

Length 17 m.

Type: Pleasure craft. MMSI: 205379010.

Date/timePositionNaut miles runAvg speedWind from/ knotsBaromVisibWave heightAir tempDewpointWater temp
2015-Jul-26 14:25N 40°45' E 014°20'7 6.0
2015-Jul-26 13:14N 40°38' E 014°20'4 0.1
2015-Jul-25 11:13N 40°34' E 014°19'3 4.8
2015-Jul-25 10:33N 40°34' E 014°15'0 0.0
2015-Jul-24 14:20N 40°34' E 014°15'5 6.3
2015-Jul-24 13:30N 40°38' E 014°19'4 4.0
2015-Jul-24 12:30N 40°40' E 014°23'5 4.9
2015-Jul-24 11:33N 40°43' E 014°18'5 5.5
2015-Jul-24 10:34N 40°48' E 014°15'1 0.8
2015-Jul-24 09:03N 40°49' E 014°15'3 5.4
2015-Jul-24 08:33N 40°48' E 014°12'5 5.1
2015-Jul-24 07:33N 40°45' E 014°06'5 5.4
2015-Jul-24 06:32N 40°44' E 013°60'1 1.3
2015-Jul-24 05:33N 40°44' E 013°58'0 0.0
2015-Jul-24 04:33N 40°44' E 013°58'0 0.0
2015-Jul-24 03:30N 40°44' E 013°58'0 0.0
2015-Jul-24 02:33N 40°44' E 013°58'0 0.0
2015-Jul-24 01:33N 40°44' E 013°58'0 0.0
2015-Jul-24 00:33N 40°44' E 013°58'0 0.0
2015-Jul-23 23:33N 40°44' E 013°58'0 0.0
2015-Jul-23 22:33N 40°44' E 013°58'0 0.0
2015-Jul-23 20:32N 40°44' E 013°58'3 0.6
2015-Jul-23 15:33N 40°44' E 014°02'6 6.2
2015-Jul-23 14:33N 40°46' E 014°09'8 4.1
2015-Jul-23 12:33N 40°49' E 014°20'0 0.0
2015-Jul-23 11:28N 40°49' E 014°20'3 2.8
2015-Jul-23 10:19N 40°46' E 014°20'5 6.5
2015-Jul-23 09:33N 40°41' E 014°19'  
2015-Jul-19 16:26N 40°33' E 014°15'0 0.2
2015-Jul-19 15:32N 40°34' E 014°15'3 2.8
2015-Jul-19 14:33N 40°35' E 014°11'6 6.3
2015-Jul-19 13:33N 40°38' E 014°05'6 5.8
2015-Jul-19 12:33N 40°43' E 013°59'2 1.6
2015-Jul-19 11:33N 40°44' E 013°58'0 0.0
2015-Jul-19 10:33N 40°44' E 013°58'0 0.0
2015-Jul-19 09:34N 40°44' E 013°58'0 0.0
2015-Jul-19 00:31N 40°44' E 013°58'0 0.0
2015-Jul-18 23:33N 40°44' E 013°58'0 0.0
2015-Jul-18 22:33N 40°44' E 013°58'0 0.0
2015-Jul-18 21:26N 40°44' E 013°58'0 0.0
2015-Jul-18 20:31N 40°44' E 013°58'0 0.0
2015-Jul-18 19:33N 40°44' E 013°58'0 0.0
2015-Jul-18 18:33N 40°44' E 013°58'0 0.0
2015-Jul-18 17:33N 40°44' E 013°58'0 0.0
2015-Jul-18 16:33N 40°44' E 013°58'2 2.1
2015-Jul-18 15:33N 40°45' E 014°00'  

Dump ship's entire track history